sensor_id;sensor_type;location;lat;lon;timestamp;pressure;altitude;pressure_sealevel;temperature;humidity
63321;BME280;49449;48.800;9.534;2023-06-14T00:02:10;98066.31;;;16.91;26.36
63321;BME280;49449;48.800;9.534;2023-06-14T00:04:39;98073.84;;;16.83;26.49
63321;BME280;49449;48.800;9.534;2023-06-14T00:07:08;98072.81;;;16.74;26.50
63321;BME280;49449;48.800;9.534;2023-06-14T00:09:37;98066.22;;;16.66;26.56
63321;BME280;49449;48.800;9.534;2023-06-14T00:12:05;98074.75;;;16.69;26.33
63321;BME280;49449;48.800;9.534;2023-06-14T00:14:35;98070.19;;;16.69;26.56
63321;BME280;49449;48.800;9.534;2023-06-14T00:17:03;98078.22;;;16.64;26.68
63321;BME280;49449;48.800;9.534;2023-06-14T00:19:31;98067.56;;;16.64;26.83
63321;BME280;49449;48.800;9.534;2023-06-14T00:22:03;98070.19;;;16.69;26.85
63321;BME280;49449;48.800;9.534;2023-06-14T00:24:31;98070.72;;;16.71;26.63
63321;BME280;49449;48.800;9.534;2023-06-14T00:26:59;98069.13;;;16.70;26.96
63321;BME280;49449;48.800;9.534;2023-06-14T00:29:27;98067.56;;;16.64;26.83
63321;BME280;49449;48.800;9.534;2023-06-14T00:31:54;98067.88;;;16.57;26.72
63321;BME280;49449;48.800;9.534;2023-06-14T00:34:22;98074.16;;;16.37;27.20
63321;BME280;49449;48.800;9.534;2023-06-14T00:36:50;98070.41;;;16.38;27.05
63321;BME280;49449;48.800;9.534;2023-06-14T00:39:20;98065.84;;;16.44;27.14
63321;BME280;49449;48.800;9.534;2023-06-14T00:41:47;98066.13;;;16.42;26.77
63321;BME280;49449;48.800;9.534;2023-06-14T00:44:16;98068.59;;;16.34;26.91
63321;BME280;49449;48.800;9.534;2023-06-14T00:46:45;98067.34;;;16.21;27.42
63321;BME280;49449;48.800;9.534;2023-06-14T00:49:14;98067.31;;;16.26;27.30
63321;BME280;49449;48.800;9.534;2023-06-14T00:51:42;98068.38;;;16.25;27.27
63321;BME280;49449;48.800;9.534;2023-06-14T00:54:10;98070.50;;;16.28;27.54
63321;BME280;49449;48.800;9.534;2023-06-14T00:56:40;98066.75;;;16.29;27.82
63321;BME280;49449;48.800;9.534;2023-06-14T00:59:09;98069.91;;;16.31;27.75
63321;BME280;49449;48.800;9.534;2023-06-14T01:01:37;98065.91;;;16.34;27.87
63321;BME280;49449;48.800;9.534;2023-06-14T01:04:05;98066.72;;;16.34;27.69
63321;BME280;49449;48.800;9.534;2023-06-14T01:06:38;98070.22;;;16.30;27.92
63321;BME280;49449;48.800;9.534;2023-06-14T01:09:15;98071.56;;;16.27;27.94
63321;BME280;49449;48.800;9.534;2023-06-14T01:11:56;98071.06;;;16.20;27.67
63321;BME280;49449;48.800;9.534;2023-06-14T01:14:27;98066.00;;;16.18;27.74
63321;BME280;49449;48.800;9.534;2023-06-14T01:16:57;98067.66;;;16.04;27.89
63321;BME280;49449;48.800;9.534;2023-06-14T01:19:27;98069.53;;;16.03;28.15
63321;BME280;49449;48.800;9.534;2023-06-14T01:21:55;98075.13;;;16.02;28.10
63321;BME280;49449;48.800;9.534;2023-06-14T01:24:24;98070.34;;;15.99;27.80
63321;BME280;49449;48.800;9.534;2023-06-14T01:26:58;98070.09;;;15.95;28.17
63321;BME280;49449;48.800;9.534;2023-06-14T01:29:28;98076.25;;;15.90;27.91
63321;BME280;49449;48.800;9.534;2023-06-14T01:32:01;98066.72;;;15.79;28.33
63321;BME280;49449;48.800;9.534;2023-06-14T01:34:29;98075.25;;;15.76;28.12
63321;BME280;49449;48.800;9.534;2023-06-14T01:36:59;98071.28;;;15.74;28.04
63321;BME280;49449;48.800;9.534;2023-06-14T01:39:30;98071.53;;;15.72;28.39
63321;BME280;49449;48.800;9.534;2023-06-14T01:41:58;98082.47;;;15.65;28.25
63321;BME280;49449;48.800;9.534;2023-06-14T01:44:28;98079.81;;;15.65;28.65
63321;BME280;49449;48.800;9.534;2023-06-14T01:46:56;98072.88;;;15.69;28.38
63321;BME280;49449;48.800;9.534;2023-06-14T01:49:25;98079.28;;;15.68;28.61
63321;BME280;49449;48.800;9.534;2023-06-14T01:51:53;98074.50;;;15.60;28.60
63321;BME280;49449;48.800;9.534;2023-06-14T01:54:21;98072.44;;;15.52;28.65
63321;BME280;49449;48.800;9.534;2023-06-14T01:56:50;98075.09;;;15.52;28.88
63321;BME280;49449;48.800;9.534;2023-06-14T01:59:18;98073.75;;;15.44;28.73
63321;BME280;49449;48.800;9.534;2023-06-14T02:01:46;98075.66;;;15.39;29.07
63321;BME280;49449;48.800;9.534;2023-06-14T02:04:14;98069.00;;;15.36;28.97
63321;BME280;49449;48.800;9.534;2023-06-14T02:06:42;98073.28;;;15.27;29.08
63321;BME280;49449;48.800;9.534;2023-06-14T02:09:10;98074.34;;;15.10;29.17
63321;BME280;49449;48.800;9.534;2023-06-14T02:11:37;98063.69;;;15.10;29.67
63321;BME280;49449;48.800;9.534;2023-06-14T02:14:07;98074.59;;;15.14;29.37
63321;BME280;49449;48.800;9.534;2023-06-14T02:16:38;98070.06;;;15.09;29.58
63321;BME280;49449;48.800;9.534;2023-06-14T02:19:06;98063.97;;;15.04;29.40
63321;BME280;49449;48.800;9.534;2023-06-14T02:21:34;98070.63;;;15.01;29.58
63321;BME280;49449;48.800;9.534;2023-06-14T02:24:02;98058.91;;;15.02;29.42
63321;BME280;49449;48.800;9.534;2023-06-14T02:26:29;98062.38;;;15.08;29.74
63321;BME280;49449;48.800;9.534;2023-06-14T02:28:58;98073.56;;;15.00;29.48
63321;BME280;49449;48.800;9.534;2023-06-14T02:31:27;98072.50;;;14.95;29.57
63321;BME280;49449;48.800;9.534;2023-06-14T02:33:55;98069.03;;;14.95;29.70
63321;BME280;49449;48.800;9.534;2023-06-14T02:36:23;98068.25;;;14.84;30.03
63321;BME280;49449;48.800;9.534;2023-06-14T02:38:51;98063.75;;;14.80;29.92
63321;BME280;49449;48.800;9.534;2023-06-14T02:41:20;98063.19;;;14.72;30.00
63321;BME280;49449;48.800;9.534;2023-06-14T02:43:48;98067.97;;;14.70;30.62
63321;BME280;49449;48.800;9.534;2023-06-14T02:46:16;98068.50;;;14.72;30.50
63321;BME280;49449;48.800;9.534;2023-06-14T02:48:45;98067.47;;;14.73;30.16
63321;BME280;49449;48.800;9.534;2023-06-14T02:51:13;98075.97;;;14.75;30.50
63321;BME280;49449;48.800;9.534;2023-06-14T02:53:41;98074.38;;;14.64;30.71
63321;BME280;49449;48.800;9.534;2023-06-14T02:56:10;98079.69;;;14.54;30.70
63321;BME280;49449;48.800;9.534;2023-06-14T02:58:38;98075.41;;;14.53;30.67
63321;BME280;49449;48.800;9.534;2023-06-14T03:01:06;98080.22;;;14.61;30.79
63321;BME280;49449;48.800;9.534;2023-06-14T03:03:34;98074.38;;;14.54;30.74
63321;BME280;49449;48.800;9.534;2023-06-14T03:06:03;98077.00;;;14.49;30.80
63321;BME280;49449;48.800;9.534;2023-06-14T03:11:05;98069.56;;;14.51;30.80
63321;BME280;49449;48.800;9.534;2023-06-14T03:13:33;98075.41;;;14.58;30.85
63321;BME280;49449;48.800;9.534;2023-06-14T03:16:01;98085.00;;;14.59;30.85
63321;BME280;49449;48.800;9.534;2023-06-14T03:18:29;98080.47;;;14.54;31.02
63321;BME280;49449;48.800;9.534;2023-06-14T03:21:03;98080.19;;;14.51;30.78
63321;BME280;49449;48.800;9.534;2023-06-14T03:23:32;98082.59;;;14.47;31.08
63321;BME280;49449;48.800;9.534;2023-06-14T03:26:00;98081.75;;;14.42;31.10
63321;BME280;49449;48.800;9.534;2023-06-14T03:28:28;98089.19;;;14.39;31.15
63321;BME280;49449;48.800;9.534;2023-06-14T03:30:56;98100.09;;;14.43;31.04
63321;BME280;49449;48.800;9.534;2023-06-14T03:33:23;98097.19;;;14.45;31.11
63321;BME280;49449;48.800;9.534;2023-06-14T03:35:51;98097.16;;;14.34;31.25
63321;BME280;49449;48.800;9.534;2023-06-14T03:38:21;98098.22;;;14.38;31.36
63321;BME280;49449;48.800;9.534;2023-06-14T03:40:48;98099.03;;;14.39;31.33
63321;BME280;49449;48.800;9.534;2023-06-14T03:43:16;98097.69;;;14.36;31.24
63321;BME280;49449;48.800;9.534;2023-06-14T03:45:44;98098.50;;;14.42;31.30
63321;BME280;49449;48.800;9.534;2023-06-14T03:48:12;98097.47;;;14.48;31.04
63321;BME280;49449;48.800;9.534;2023-06-14T03:50:40;98102.00;;;14.53;31.09
63321;BME280;49449;48.800;9.534;2023-06-14T03:53:09;98103.84;;;14.47;31.28
63321;BME280;49449;48.800;9.534;2023-06-14T03:55:38;98110.50;;;14.50;31.39
63321;BME280;49449;48.800;9.534;2023-06-14T03:58:21;98114.22;;;14.54;31.73
63321;BME280;49449;48.800;9.534;2023-06-14T04:00:49;98115.78;;;14.45;31.67
63321;BME280;49449;48.800;9.534;2023-06-14T04:03:17;98117.41;;;14.51;31.85
63321;BME280;49449;48.800;9.534;2023-06-14T04:05:46;98118.50;;;14.55;31.24
63321;BME280;49449;48.800;9.534;2023-06-14T04:08:15;98126.75;;;14.58;31.66
63321;BME280;49449;48.800;9.534;2023-06-14T04:10:47;98130.19;;;14.64;31.28
63321;BME280;49449;48.800;9.534;2023-06-14T04:13:15;98129.66;;;14.62;31.63
63321;BME280;49449;48.800;9.534;2023-06-14T04:15:43;98127.53;;;14.59;31.38
63321;BME280;49449;48.800;9.534;2023-06-14T04:18:12;98129.66;;;14.57;31.39
63321;BME280;49449;48.800;9.534;2023-06-14T04:20:40;98135.25;;;14.71;31.17
63321;BME280;49449;48.800;9.534;2023-06-14T04:23:11;98139.78;;;14.86;31.15
63321;BME280;49449;48.800;9.534;2023-06-14T04:25:41;98138.72;;;14.97;31.31
63321;BME280;49449;48.800;9.534;2023-06-14T04:28:13;98158.69;;;15.10;31.05
63321;BME280;49449;48.800;9.534;2023-06-14T04:30:42;98155.72;;;15.22;31.06
63321;BME280;49449;48.800;9.534;2023-06-14T04:33:11;98150.69;;;15.30;30.98
63321;BME280;49449;48.800;9.534;2023-06-14T04:35:39;98149.13;;;15.40;30.54
63321;BME280;49449;48.800;9.534;2023-06-14T04:38:07;98158.66;;;15.51;30.55
63321;BME280;49449;48.800;9.534;2023-06-14T04:40:35;98158.13;;;15.59;30.41
63321;BME280;49449;48.800;9.534;2023-06-14T04:43:09;98149.56;;;15.67;30.45
63321;BME280;49449;48.800;9.534;2023-06-14T04:45:40;98158.63;;;15.71;30.00
63321;BME280;49449;48.800;9.534;2023-06-14T04:48:11;98158.88;;;15.75;30.14
63321;BME280;49449;48.800;9.534;2023-06-14T04:50:39;98157.00;;;15.86;30.12
63321;BME280;49449;48.800;9.534;2023-06-14T04:53:07;98156.69;;;15.98;30.14
63321;BME280;49449;48.800;9.534;2023-06-14T04:55:35;98163.31;;;16.11;30.07
63321;BME280;49449;48.800;9.534;2023-06-14T04:58:03;98162.19;;;16.22;29.94
63321;BME280;49449;48.800;9.534;2023-06-14T05:00:31;98164.03;;;16.32;29.74
63321;BME280;49449;48.800;9.534;2023-06-14T05:03:00;98165.56;;;16.43;29.58
63321;BME280;49449;48.800;9.534;2023-06-14T05:05:29;98169.22;;;16.52;29.37
63321;BME280;49449;48.800;9.534;2023-06-14T05:07:57;98164.94;;;16.61;29.34
63321;BME280;49449;48.800;9.534;2023-06-14T05:10:25;98170.25;;;16.66;29.16
63321;BME280;49449;48.800;9.534;2023-06-14T05:12:52;98168.59;;;16.71;29.14
63321;BME280;49449;48.800;9.534;2023-06-14T05:15:20;98161.34;;;16.76;29.03
63321;BME280;49449;48.800;9.534;2023-06-14T05:17:51;98170.66;;;16.84;30.57
63321;BME280;49449;48.800;9.534;2023-06-14T05:20:23;98176.84;;;17.14;30.17
63321;BME280;49449;48.800;9.534;2023-06-14T05:22:53;98172.91;;;17.35;29.81
63321;BME280;49449;48.800;9.534;2023-06-14T05:25:21;98170.03;;;17.61;29.27
63321;BME280;49449;48.800;9.534;2023-06-14T05:27:49;98175.97;;;17.82;29.04
63321;BME280;49449;48.800;9.534;2023-06-14T05:30:17;98167.19;;;18.01;27.74
63321;BME280;49449;48.800;9.534;2023-06-14T05:32:44;98183.63;;;18.13;27.85
63321;BME280;49449;48.800;9.534;2023-06-14T05:35:12;98187.53;;;18.26;27.20
63321;BME280;49449;48.800;9.534;2023-06-14T05:37:42;98174.81;;;18.37;27.49
63321;BME280;49449;48.800;9.534;2023-06-14T05:40:11;98187.22;;;18.46;27.25
63321;BME280;49449;48.800;9.534;2023-06-14T05:42:39;98179.44;;;18.69;27.33
63321;BME280;49449;48.800;9.534;2023-06-14T05:45:07;98184.00;;;18.87;26.71
63321;BME280;49449;48.800;9.534;2023-06-14T05:47:35;98193.47;;;18.99;26.33
63321;BME280;49449;48.800;9.534;2023-06-14T05:50:03;98181.50;;;19.10;26.07
63321;BME280;49449;48.800;9.534;2023-06-14T05:52:31;98176.81;;;19.21;25.98
63321;BME280;49449;48.800;9.534;2023-06-14T05:55:01;98182.28;;;19.29;25.23
63321;BME280;49449;48.800;9.534;2023-06-14T05:57:29;98183.09;;;19.44;25.64
63321;BME280;49449;48.800;9.534;2023-06-14T05:59:57;98182.81;;;19.59;25.29
63321;BME280;49449;48.800;9.534;2023-06-14T06:02:25;98185.34;;;19.70;25.16
63321;BME280;49449;48.800;9.534;2023-06-14T06:04:53;98184.84;;;19.67;24.04
63321;BME280;49449;48.800;9.534;2023-06-14T06:07:20;98188.03;;;19.70;24.22
63321;BME280;49449;48.800;9.534;2023-06-14T06:09:48;98184.75;;;19.73;24.29
63321;BME280;49449;48.800;9.534;2023-06-14T06:12:17;98179.69;;;19.85;24.37
63321;BME280;49449;48.800;9.534;2023-06-14T06:14:45;98177.72;;;19.91;24.78
63321;BME280;49449;48.800;9.534;2023-06-14T06:17:13;98185.66;;;19.96;24.89
63321;BME280;49449;48.800;9.534;2023-06-14T06:19:41;98190.22;;;20.09;24.73
63321;BME280;49449;48.800;9.534;2023-06-14T06:22:08;98187.50;;;20.23;23.91
63321;BME280;49449;48.800;9.534;2023-06-14T06:24:36;98180.59;;;20.36;24.50
63321;BME280;49449;48.800;9.534;2023-06-14T06:27:04;98182.13;;;20.51;24.18
63321;BME280;49449;48.800;9.534;2023-06-14T06:29:35;98190.44;;;20.63;24.29
63321;BME280;49449;48.800;9.534;2023-06-14T06:32:04;98188.50;;;20.77;23.83
63321;BME280;49449;48.800;9.534;2023-06-14T06:34:32;98193.94;;;20.86;23.96
63321;BME280;49449;48.800;9.534;2023-06-14T06:37:00;98187.72;;;20.91;23.85
63321;BME280;49449;48.800;9.534;2023-06-14T06:39:28;98189.16;;;20.97;23.80
63321;BME280;49449;48.800;9.534;2023-06-14T06:41:56;98195.41;;;21.06;23.73
63321;BME280;49449;48.800;9.534;2023-06-14T06:44:23;98196.56;;;21.14;23.87
63321;BME280;49449;48.800;9.534;2023-06-14T06:46:52;98204.06;;;21.26;23.63
63321;BME280;49449;48.800;9.534;2023-06-14T06:49:20;98201.09;;;21.36;23.33
63321;BME280;49449;48.800;9.534;2023-06-14T06:51:59;98199.06;;;21.33;23.23
63321;BME280;49449;48.800;9.534;2023-06-14T06:54:27;98196.59;;;21.45;23.08
63321;BME280;49449;48.800;9.534;2023-06-14T06:56:54;98198.25;;;21.55;23.15
63321;BME280;49449;48.800;9.534;2023-06-14T06:59:22;98198.59;;;21.62;23.22
63321;BME280;49449;48.800;9.534;2023-06-14T07:01:50;98199.09;;;21.73;23.08
63321;BME280;49449;48.800;9.534;2023-06-14T07:04:21;98201.03;;;21.81;23.13
63321;BME280;49449;48.800;9.534;2023-06-14T07:06:49;98203.81;;;21.67;22.67
63321;BME280;49449;48.800;9.534;2023-06-14T07:09:17;98205.91;;;21.70;22.89
63321;BME280;49449;48.800;9.534;2023-06-14T07:11:46;98209.41;;;21.80;22.66
63321;BME280;49449;48.800;9.534;2023-06-14T07:14:15;98207.25;;;21.90;22.47
63321;BME280;49449;48.800;9.534;2023-06-14T07:16:42;98205.88;;;22.02;22.57
63321;BME280;49449;48.800;9.534;2023-06-14T07:19:10;98218.69;;;22.05;22.85
63321;BME280;49449;48.800;9.534;2023-06-14T07:21:39;98219.03;;;22.12;22.90
63321;BME280;49449;48.800;9.534;2023-06-14T07:24:07;98216.34;;;22.12;22.74
63321;BME280;49449;48.800;9.534;2023-06-14T07:26:35;98219.41;;;22.19;22.68
63321;BME280;49449;48.800;9.534;2023-06-14T07:29:04;98222.91;;;22.28;22.92
63321;BME280;49449;48.800;9.534;2023-06-14T07:31:32;98221.81;;;22.38;22.45
63321;BME280;49449;48.800;9.534;2023-06-14T07:33:59;98229.75;;;22.52;22.13
63321;BME280;49449;48.800;9.534;2023-06-14T07:36:27;98225.16;;;22.61;22.17
63321;BME280;49449;48.800;9.534;2023-06-14T07:38:56;98227.38;;;22.59;22.13
63321;BME280;49449;48.800;9.534;2023-06-14T07:41:24;98221.38;;;22.62;22.30
63321;BME280;49449;48.800;9.534;2023-06-14T07:43:52;98224.84;;;22.72;22.64
63321;BME280;49449;48.800;9.534;2023-06-14T07:46:19;98225.88;;;22.84;22.15
63321;BME280;49449;48.800;9.534;2023-06-14T07:48:47;98230.59;;;22.87;21.82
63321;BME280;49449;48.800;9.534;2023-06-14T07:51:15;98234.41;;;22.95;21.46
63321;BME280;49449;48.800;9.534;2023-06-14T07:53:43;98228.41;;;22.81;21.34
63321;BME280;49449;48.800;9.534;2023-06-14T07:56:12;98232.19;;;22.89;21.14
63321;BME280;49449;48.800;9.534;2023-06-14T07:58:40;98230.91;;;23.03;21.40
63321;BME280;49449;48.800;9.534;2023-06-14T08:01:08;98233.44;;;23.17;21.30
63321;BME280;49449;48.800;9.534;2023-06-14T08:03:36;98233.25;;;23.31;21.21
63321;BME280;49449;48.800;9.534;2023-06-14T08:06:04;98230.09;;;23.29;20.51
63321;BME280;49449;48.800;9.534;2023-06-14T08:08:32;98226.28;;;23.30;20.98
63321;BME280;49449;48.800;9.534;2023-06-14T08:11:00;98221.72;;;23.39;20.54
63321;BME280;49449;48.800;9.534;2023-06-14T08:13:29;98223.09;;;23.54;21.04
63321;BME280;49449;48.800;9.534;2023-06-14T08:15:56;98223.19;;;23.67;20.76
63321;BME280;49449;48.800;9.534;2023-06-14T08:18:24;98227.34;;;23.64;20.98
63321;BME280;49449;48.800;9.534;2023-06-14T08:20:52;98227.94;;;23.78;21.44
63321;BME280;49449;48.800;9.534;2023-06-14T08:23:20;98217.88;;;23.88;20.89
63321;BME280;49449;48.800;9.534;2023-06-14T08:25:49;98229.16;;;23.90;20.95
63321;BME280;49449;48.800;9.534;2023-06-14T08:28:17;98217.25;;;23.99;20.21
63321;BME280;49449;48.800;9.534;2023-06-14T08:30:46;98221.78;;;24.08;20.39
63321;BME280;49449;48.800;9.534;2023-06-14T08:33:13;98220.72;;;24.00;20.31
63321;BME280;49449;48.800;9.534;2023-06-14T08:35:42;98221.31;;;24.06;19.92
63321;BME280;49449;48.800;9.534;2023-06-14T08:38:10;98221.13;;;24.11;20.09
63321;BME280;49449;48.800;9.534;2023-06-14T08:40:40;98216.47;;;24.20;20.47
63321;BME280;49449;48.800;9.534;2023-06-14T08:43:09;98220.09;;;24.33;20.47
63321;BME280;49449;48.800;9.534;2023-06-14T08:45:37;98223.19;;;24.44;20.40
63321;BME280;49449;48.800;9.534;2023-06-14T08:48:07;98226.78;;;24.56;20.08
63321;BME280;49449;48.800;9.534;2023-06-14T08:50:36;98225.94;;;24.65;19.51
63321;BME280;49449;48.800;9.534;2023-06-14T08:53:08;98233.84;;;24.70;19.46
63321;BME280;49449;48.800;9.534;2023-06-14T08:55:37;98230.25;;;24.78;19.49
63321;BME280;49449;48.800;9.534;2023-06-14T08:58:08;98223.28;;;24.77;18.99
63321;BME280;49449;48.800;9.534;2023-06-14T09:00:42;98226.91;;;24.81;19.10
63321;BME280;49449;48.800;9.534;2023-06-14T09:03:12;98232.50;;;24.97;18.88
63321;BME280;49449;48.800;9.534;2023-06-14T09:05:41;98225.66;;;25.00;18.16
63321;BME280;49449;48.800;9.534;2023-06-14T09:08:09;98226.50;;;25.12;18.35
63321;BME280;49449;48.800;9.534;2023-06-14T09:10:37;98224.47;;;25.09;18.08
63321;BME280;49449;48.800;9.534;2023-06-14T09:13:07;98223.56;;;25.05;18.60
63321;BME280;49449;48.800;9.534;2023-06-14T09:15:35;98220.34;;;25.12;18.44
63321;BME280;49449;48.800;9.534;2023-06-14T09:18:03;98222.09;;;25.08;18.24
63321;BME280;49449;48.800;9.534;2023-06-14T09:20:33;98220.09;;;24.96;18.76
63321;BME280;49449;48.800;9.534;2023-06-14T09:23:02;98226.50;;;24.91;18.16
63321;BME280;49449;48.800;9.534;2023-06-14T09:25:31;98223.16;;;24.94;18.05
63321;BME280;49449;48.800;9.534;2023-06-14T09:28:06;98220.78;;;24.93;18.42
63321;BME280;49449;48.800;9.534;2023-06-14T09:30:35;98226.09;;;25.02;18.31
63321;BME280;49449;48.800;9.534;2023-06-14T09:33:03;98226.31;;;25.18;17.99
63321;BME280;49449;48.800;9.534;2023-06-14T09:35:31;98222.06;;;25.29;18.22
63321;BME280;49449;48.800;9.534;2023-06-14T09:38:00;98227.59;;;25.33;17.22
63321;BME280;49449;48.800;9.534;2023-06-14T09:40:29;98233.16;;;25.48;17.00
63321;BME280;49449;48.800;9.534;2023-06-14T09:43:02;98230.78;;;25.47;17.18
63321;BME280;49449;48.800;9.534;2023-06-14T09:45:31;98233.91;;;25.37;17.14
63321;BME280;49449;48.800;9.534;2023-06-14T09:47:59;98235.53;;;25.17;17.28
63321;BME280;49449;48.800;9.534;2023-06-14T09:50:31;98239.09;;;24.87;17.21
63321;BME280;49449;48.800;9.534;2023-06-14T09:53:03;98245.34;;;24.79;17.58
63321;BME280;49449;48.800;9.534;2023-06-14T09:55:34;98234.28;;;24.72;18.03
63321;BME280;49449;48.800;9.534;2023-06-14T09:58:05;98233.03;;;24.90;17.98
63321;BME280;49449;48.800;9.534;2023-06-14T10:00:34;98232.94;;;25.20;17.69
63321;BME280;49449;48.800;9.534;2023-06-14T10:03:06;98231.34;;;25.40;17.52
63321;BME280;49449;48.800;9.534;2023-06-14T10:05:39;98233.81;;;25.45;17.18
63321;BME280;49449;48.800;9.534;2023-06-14T10:08:19;98233.19;;;25.27;17.19
63321;BME280;49449;48.800;9.534;2023-06-14T10:10:53;98234.78;;;25.28;17.25
63321;BME280;49449;48.800;9.534;2023-06-14T10:13:21;98234.47;;;25.30;16.92
63321;BME280;49449;48.800;9.534;2023-06-14T10:15:55;98233.22;;;25.40;17.24
63321;BME280;49449;48.800;9.534;2023-06-14T10:18:33;98230.44;;;25.48;16.99
63321;BME280;49449;48.800;9.534;2023-06-14T10:21:08;98230.06;;;25.71;16.64
63321;BME280;49449;48.800;9.534;2023-06-14T10:23:43;98230.06;;;25.83;16.54
63321;BME280;49449;48.800;9.534;2023-06-14T10:26:18;98224.44;;;25.76;16.43
63321;BME280;49449;48.800;9.534;2023-06-14T10:29:01;98216.44;;;25.80;16.65
63321;BME280;49449;48.800;9.534;2023-06-14T10:31:42;98221.06;;;25.92;16.99
63321;BME280;49449;48.800;9.534;2023-06-14T10:34:10;98222.50;;;25.77;16.44
63321;BME280;49449;48.800;9.534;2023-06-14T10:36:42;98221.16;;;25.71;16.71
63321;BME280;49449;48.800;9.534;2023-06-14T10:39:15;98223.81;;;25.58;16.16
63321;BME280;49449;48.800;9.534;2023-06-14T10:41:51;98216.41;;;25.67;16.63
63321;BME280;49449;48.800;9.534;2023-06-14T10:44:38;98218.91;;;25.85;16.52
63321;BME280;49449;48.800;9.534;2023-06-14T10:47:08;98217.66;;;25.82;16.68
63321;BME280;49449;48.800;9.534;2023-06-14T10:49:41;98219.47;;;26.03;16.64
63321;BME280;49449;48.800;9.534;2023-06-14T10:52:11;98220.25;;;25.91;16.49
63321;BME280;49449;48.800;9.534;2023-06-14T10:55:09;98221.63;;;25.73;16.97
63321;BME280;49449;48.800;9.534;2023-06-14T10:57:39;98216.63;;;25.62;16.35
63321;BME280;49449;48.800;9.534;2023-06-14T11:00:11;98212.78;;;25.51;16.94
63321;BME280;49449;48.800;9.534;2023-06-14T11:05:52;98213.94;;;25.62;16.61
63321;BME280;49449;48.800;9.534;2023-06-14T11:11:35;98212.72;;;25.72;16.77
63321;BME280;49449;48.800;9.534;2023-06-14T11:14:05;98211.41;;;25.57;16.81
63321;BME280;49449;48.800;9.534;2023-06-14T11:16:33;98215.41;;;25.60;17.42
63321;BME280;49449;48.800;9.534;2023-06-14T11:19:02;98210.06;;;25.51;17.00
63321;BME280;49449;48.800;9.534;2023-06-14T11:21:32;98214.78;;;25.54;16.81
63321;BME280;49449;48.800;9.534;2023-06-14T11:24:00;98214.84;;;25.66;16.79
63321;BME280;49449;48.800;9.534;2023-06-14T11:26:28;98220.25;;;25.79;16.93
63321;BME280;49449;48.800;9.534;2023-06-14T11:28:59;98219.06;;;25.55;16.89
63321;BME280;49449;48.800;9.534;2023-06-14T11:31:28;98213.75;;;25.46;17.23
63321;BME280;49449;48.800;9.534;2023-06-14T11:33:57;98208.91;;;25.40;17.25
63321;BME280;49449;48.800;9.534;2023-06-14T11:36:26;98212.56;;;25.56;17.18
63321;BME280;49449;48.800;9.534;2023-06-14T11:38:59;98208.53;;;25.75;17.00
63321;BME280;49449;48.800;9.534;2023-06-14T11:41:32;98207.06;;;25.65;17.21
63321;BME280;49449;48.800;9.534;2023-06-14T11:44:02;98218.25;;;25.88;17.26
63321;BME280;49449;48.800;9.534;2023-06-14T11:46:30;98218.91;;;25.97;16.65
63321;BME280;49449;48.800;9.534;2023-06-14T11:48:58;98208.53;;;25.87;16.79
63321;BME280;49449;48.800;9.534;2023-06-14T11:51:30;98206.28;;;25.89;16.86
63321;BME280;49449;48.800;9.534;2023-06-14T11:53:58;98216.88;;;25.69;16.29
63321;BME280;49449;48.800;9.534;2023-06-14T11:56:26;98212.06;;;25.42;16.59
63321;BME280;49449;48.800;9.534;2023-06-14T11:58:54;98199.34;;;25.42;16.75
63321;BME280;49449;48.800;9.534;2023-06-14T12:01:24;98209.34;;;25.42;16.57
63321;BME280;49449;48.800;9.534;2023-06-14T12:03:54;98201.91;;;25.26;16.78
63321;BME280;49449;48.800;9.534;2023-06-14T12:06:31;98208.38;;;25.13;16.97
63321;BME280;49449;48.800;9.534;2023-06-14T12:09:06;98209.53;;;25.12;16.82
63321;BME280;49449;48.800;9.534;2023-06-14T12:11:40;98208.50;;;25.17;17.22
63321;BME280;49449;48.800;9.534;2023-06-14T12:14:08;98201.13;;;25.05;17.18
63321;BME280;49449;48.800;9.534;2023-06-14T12:16:39;98199.25;;;25.05;17.16
63321;BME280;49449;48.800;9.534;2023-06-14T12:19:09;98206.66;;;25.08;17.25
63321;BME280;49449;48.800;9.534;2023-06-14T12:21:38;98202.84;;;25.09;17.68
63321;BME280;49449;48.800;9.534;2023-06-14T12:24:07;98209.03;;;25.10;17.38
63321;BME280;49449;48.800;9.534;2023-06-14T12:26:39;98204.44;;;25.10;17.39
63321;BME280;49449;48.800;9.534;2023-06-14T12:29:07;98208.38;;;25.13;17.62
63321;BME280;49449;48.800;9.534;2023-06-14T12:31:36;98202.84;;;25.09;17.52
63321;BME280;49449;48.800;9.534;2023-06-14T12:34:05;98195.22;;;25.24;17.53
63321;BME280;49449;48.800;9.534;2023-06-14T12:36:33;98194.00;;;25.21;17.01
63321;BME280;49449;48.800;9.534;2023-06-14T12:39:06;98197.25;;;25.15;17.33
63321;BME280;49449;48.800;9.534;2023-06-14T12:41:34;98202.31;;;25.16;18.05
63321;BME280;49449;48.800;9.534;2023-06-14T12:44:03;98198.28;;;25.01;17.61
63321;BME280;49449;48.800;9.534;2023-06-14T12:46:31;98196.47;;;25.14;17.74
63321;BME280;49449;48.800;9.534;2023-06-14T12:48:59;98193.44;;;24.94;17.26
63321;BME280;49449;48.800;9.534;2023-06-14T12:51:28;98186.31;;;25.11;17.21
63321;BME280;49449;48.800;9.534;2023-06-14T12:53:56;98194.75;;;25.09;16.94
63321;BME280;49449;48.800;9.534;2023-06-14T12:56:24;98193.31;;;25.12;17.30
63321;BME280;49449;48.800;9.534;2023-06-14T12:58:52;98189.03;;;25.23;16.93
63321;BME280;49449;48.800;9.534;2023-06-14T13:01:20;98194.28;;;25.41;17.63
63321;BME280;49449;48.800;9.534;2023-06-14T13:03:48;98195.16;;;25.45;16.45
63321;BME280;49449;48.800;9.534;2023-06-14T13:06:18;98192.81;;;25.56;16.17
63321;BME280;49449;48.800;9.534;2023-06-14T13:08:48;98199.81;;;25.57;16.51
63321;BME280;49449;48.800;9.534;2023-06-14T13:11:16;98195.75;;;25.50;16.90
63321;BME280;49449;48.800;9.534;2023-06-14T13:13:44;98193.19;;;25.66;17.21
63321;BME280;49449;48.800;9.534;2023-06-14T13:16:12;98197.84;;;25.78;16.84
63321;BME280;49449;48.800;9.534;2023-06-14T13:18:41;98191.19;;;25.76;16.80
63321;BME280;49449;48.800;9.534;2023-06-14T13:21:08;98182.38;;;25.79;17.52